sensor_id;sensor_type;location;lat;lon;timestamp;pressure;altitude;pressure_sealevel;temperature
67501;BMP180;54349;52.528;19.760;2022-11-20T00:01:33;100368.40;;;22.50
67501;BMP180;54349;52.528;19.760;2022-11-20T00:04:02;100370.80;;;22.60
67501;BMP180;54349;52.528;19.760;2022-11-20T00:06:30;100365.80;;;22.60
67501;BMP180;54349;52.528;19.760;2022-11-20T00:09:00;100368.40;;;22.64
67501;BMP180;54349;52.528;19.760;2022-11-20T00:11:31;100370.60;;;22.70
67501;BMP180;54349;52.528;19.760;2022-11-20T00:14:01;100373.40;;;22.70
67501;BMP180;54349;52.528;19.760;2022-11-20T00:16:32;100372.20;;;22.74
67501;BMP180;54349;52.528;19.760;2022-11-20T00:19:02;100377.00;;;22.80
67501;BMP180;54349;52.528;19.760;2022-11-20T00:21:30;100376.80;;;22.80
67501;BMP180;54349;52.528;19.760;2022-11-20T00:23:59;100372.20;;;22.80
67501;BMP180;54349;52.528;19.760;2022-11-20T00:26:28;100371.60;;;22.80
67501;BMP180;54349;52.528;19.760;2022-11-20T00:29:01;100374.40;;;22.80
67501;BMP180;54349;52.528;19.760;2022-11-20T00:31:30;100374.80;;;22.80
67501;BMP180;54349;52.528;19.760;2022-11-20T00:33:58;100373.20;;;22.80
67501;BMP180;54349;52.528;19.760;2022-11-20T00:36:28;100372.00;;;22.80
67501;BMP180;54349;52.528;19.760;2022-11-20T00:38:59;100371.60;;;22.80
67501;BMP180;54349;52.528;19.760;2022-11-20T00:41:29;100370.20;;;22.80
67501;BMP180;54349;52.528;19.760;2022-11-20T00:43:57;100365.20;;;22.80
67501;BMP180;54349;52.528;19.760;2022-11-20T00:46:27;100364.20;;;22.80
67501;BMP180;54349;52.528;19.760;2022-11-20T00:48:56;100364.80;;;22.80
67501;BMP180;54349;52.528;19.760;2022-11-20T00:51:27;100365.80;;;22.80
67501;BMP180;54349;52.528;19.760;2022-11-20T00:53:57;100364.80;;;22.80
67501;BMP180;54349;52.528;19.760;2022-11-20T00:56:28;100365.00;;;22.78
67501;BMP180;54349;52.528;19.760;2022-11-20T00:59:00;100364.80;;;22.76
67501;BMP180;54349;52.528;19.760;2022-11-20T01:01:31;100363.60;;;22.74
67501;BMP180;54349;52.528;19.760;2022-11-20T01:04:00;100364.00;;;22.70
67501;BMP180;54349;52.528;19.760;2022-11-20T01:06:35;100357.00;;;22.70
67501;BMP180;54349;52.528;19.760;2022-11-20T01:09:09;100357.60;;;22.60
67501;BMP180;54349;52.528;19.760;2022-11-20T01:11:43;100357.60;;;22.60
67501;BMP180;54349;52.528;19.760;2022-11-20T01:14:14;100357.40;;;22.56
67501;BMP180;54349;52.528;19.760;2022-11-20T01:16:49;100360.20;;;22.50
67501;BMP180;54349;52.528;19.760;2022-11-20T01:19:21;100354.60;;;22.48
67501;BMP180;54349;52.528;19.760;2022-11-20T01:21:53;100352.60;;;22.40
67501;BMP180;54349;52.528;19.760;2022-11-20T01:24:23;100350.60;;;22.40
67501;BMP180;54349;52.528;19.760;2022-11-20T01:26:51;100349.60;;;22.30
67501;BMP180;54349;52.528;19.760;2022-11-20T01:29:24;100350.20;;;22.30
67501;BMP180;54349;52.528;19.760;2022-11-20T01:31:53;100349.40;;;22.30
67501;BMP180;54349;52.528;19.760;2022-11-20T01:34:22;100344.20;;;22.22
67501;BMP180;54349;52.528;19.760;2022-11-20T01:36:52;100340.40;;;22.20
67501;BMP180;54349;52.528;19.760;2022-11-20T01:39:25;100342.20;;;22.20
67501;BMP180;54349;52.528;19.760;2022-11-20T01:41:55;100332.80;;;22.10
67501;BMP180;54349;52.528;19.760;2022-11-20T01:44:49;100335.20;;;22.10
67501;BMP180;54349;52.528;19.760;2022-11-20T01:47:44;100331.40;;;22.02
67501;BMP180;54349;52.528;19.760;2022-11-20T01:50:25;100323.40;;;22.00
67501;BMP180;54349;52.528;19.760;2022-11-20T01:53:08;100318.60;;;22.00
67501;BMP180;54349;52.528;19.760;2022-11-20T01:55:49;100323.60;;;21.90
67501;BMP180;54349;52.528;19.760;2022-11-20T01:58:23;100323.00;;;21.90
67501;BMP180;54349;52.528;19.760;2022-11-20T02:00:53;100321.60;;;21.90
67501;BMP180;54349;52.528;19.760;2022-11-20T02:03:21;100314.00;;;21.80
67501;BMP180;54349;52.528;19.760;2022-11-20T02:06:04;100318.80;;;21.80
67501;BMP180;54349;52.528;19.760;2022-11-20T02:08:33;100314.40;;;21.80
67501;BMP180;54349;52.528;19.760;2022-11-20T02:11:01;100321.60;;;21.74
67501;BMP180;54349;52.528;19.760;2022-11-20T02:13:30;100323.00;;;21.70
67501;BMP180;54349;52.528;19.760;2022-11-20T02:16:31;100320.00;;;21.70
67501;BMP180;54349;52.528;19.760;2022-11-20T02:19:04;100311.60;;;21.64
67501;BMP180;54349;52.528;19.760;2022-11-20T02:21:45;100307.80;;;21.60
67501;BMP180;54349;52.528;19.760;2022-11-20T02:24:19;100309.20;;;21.60
67501;BMP180;54349;52.528;19.760;2022-11-20T02:26:59;100306.80;;;21.60
67501;BMP180;54349;52.528;19.760;2022-11-20T02:29:53;100305.80;;;21.50
67501;BMP180;54349;52.528;19.760;2022-11-20T02:32:29;100312.80;;;21.50
67501;BMP180;54349;52.528;19.760;2022-11-20T02:35:06;100308.60;;;21.50
67501;BMP180;54349;52.528;19.760;2022-11-20T02:37:39;100312.40;;;21.40
67501;BMP180;54349;52.528;19.760;2022-11-20T02:40:09;100319.60;;;21.40
67501;BMP180;54349;52.528;19.760;2022-11-20T02:42:37;100316.40;;;21.40
67501;BMP180;54349;52.528;19.760;2022-11-20T02:45:07;100311.40;;;21.36
67501;BMP180;54349;52.528;19.760;2022-11-20T02:47:35;100308.40;;;21.30
67501;BMP180;54349;52.528;19.760;2022-11-20T02:50:06;100313.00;;;21.30
67501;BMP180;54349;52.528;19.760;2022-11-20T02:52:34;100312.00;;;21.30
67501;BMP180;54349;52.528;19.760;2022-11-20T02:55:03;100311.20;;;21.24
67501;BMP180;54349;52.528;19.760;2022-11-20T02:57:32;100310.80;;;21.20
67501;BMP180;54349;52.528;19.760;2022-11-20T03:00:00;100309.40;;;21.20
67501;BMP180;54349;52.528;19.760;2022-11-20T03:02:32;100316.80;;;21.20
67501;BMP180;54349;52.528;19.760;2022-11-20T03:05:01;100313.60;;;21.20
67501;BMP180;54349;52.528;19.760;2022-11-20T03:07:29;100316.60;;;21.10
67501;BMP180;54349;52.528;19.760;2022-11-20T03:09:57;100316.60;;;21.10
67501;BMP180;54349;52.528;19.760;2022-11-20T03:12:25;100314.00;;;21.10
67501;BMP180;54349;52.528;19.760;2022-11-20T03:14:53;100311.20;;;21.08
67501;BMP180;54349;52.528;19.760;2022-11-20T03:17:21;100312.20;;;21.00
67501;BMP180;54349;52.528;19.760;2022-11-20T03:19:49;100306.00;;;21.00
67501;BMP180;54349;52.528;19.760;2022-11-20T03:22:17;100301.40;;;21.00
67501;BMP180;54349;52.528;19.760;2022-11-20T03:24:45;100303.00;;;21.00
67501;BMP180;54349;52.528;19.760;2022-11-20T03:27:14;100307.00;;;20.90
67501;BMP180;54349;52.528;19.760;2022-11-20T03:29:42;100305.60;;;20.90
67501;BMP180;54349;52.528;19.760;2022-11-20T03:32:10;100305.00;;;20.90
67501;BMP180;54349;52.528;19.760;2022-11-20T03:34:38;100303.20;;;20.90
67501;BMP180;54349;52.528;19.760;2022-11-20T03:37:06;100305.40;;;20.90
67501;BMP180;54349;52.528;19.760;2022-11-20T03:39:34;100307.60;;;20.84
67501;BMP180;54349;52.528;19.760;2022-11-20T03:42:02;100303.60;;;20.80
67501;BMP180;54349;52.528;19.760;2022-11-20T03:44:50;100298.60;;;20.80
67501;BMP180;54349;52.528;19.760;2022-11-20T03:47:18;100290.40;;;20.80
67501;BMP180;54349;52.528;19.760;2022-11-20T03:49:46;100289.60;;;20.78
67501;BMP180;54349;52.528;19.760;2022-11-20T03:52:14;100292.40;;;20.74
67501;BMP180;54349;52.528;19.760;2022-11-20T03:54:42;100291.00;;;20.70
67501;BMP180;54349;52.528;19.760;2022-11-20T03:57:10;100293.20;;;20.70
67501;BMP180;54349;52.528;19.760;2022-11-20T03:59:38;100296.00;;;20.70
67501;BMP180;54349;52.528;19.760;2022-11-20T04:02:06;100298.20;;;20.70
67501;BMP180;54349;52.528;19.760;2022-11-20T04:04:34;100291.60;;;20.66
67501;BMP180;54349;52.528;19.760;2022-11-20T04:07:02;100296.20;;;20.60
67501;BMP180;54349;52.528;19.760;2022-11-20T04:09:31;100293.20;;;20.60
67501;BMP180;54349;52.528;19.760;2022-11-20T04:11:59;100294.40;;;20.60
67501;BMP180;54349;52.528;19.760;2022-11-20T04:14:27;100293.60;;;20.50
67501;BMP180;54349;52.528;19.760;2022-11-20T04:16:55;100295.60;;;20.50
67501;BMP180;54349;52.528;19.760;2022-11-20T04:19:23;100292.80;;;20.50
67501;BMP180;54349;52.528;19.760;2022-11-20T04:21:51;100293.00;;;20.48
67501;BMP180;54349;52.528;19.760;2022-11-20T04:24:19;100295.60;;;20.40
67501;BMP180;54349;52.528;19.760;2022-11-20T04:26:47;100293.40;;;20.40
67501;BMP180;54349;52.528;19.760;2022-11-20T04:29:15;100291.80;;;20.40
67501;BMP180;54349;52.528;19.760;2022-11-20T04:31:43;100292.00;;;20.40
67501;BMP180;54349;52.528;19.760;2022-11-20T04:34:11;100294.00;;;20.30
67501;BMP180;54349;52.528;19.760;2022-11-20T04:36:40;100289.20;;;20.30
67501;BMP180;54349;52.528;19.760;2022-11-20T04:39:13;100286.40;;;20.30
67501;BMP180;54349;52.528;19.760;2022-11-20T04:41:42;100282.20;;;20.30
67501;BMP180;54349;52.528;19.760;2022-11-20T04:44:11;100280.60;;;20.28
67501;BMP180;54349;52.528;19.760;2022-11-20T04:46:42;100276.60;;;20.22
67501;BMP180;54349;52.528;19.760;2022-11-20T04:49:11;100267.60;;;20.20
67501;BMP180;54349;52.528;19.760;2022-11-20T04:51:39;100266.00;;;20.20
67501;BMP180;54349;52.528;19.760;2022-11-20T04:54:09;100261.60;;;20.20
67501;BMP180;54349;52.528;19.760;2022-11-20T04:56:38;100269.20;;;20.20
67501;BMP180;54349;52.528;19.760;2022-11-20T04:59:06;100266.00;;;20.20
67501;BMP180;54349;52.528;19.760;2022-11-20T05:01:34;100267.40;;;20.30
67501;BMP180;54349;52.528;19.760;2022-11-20T05:04:02;100267.60;;;20.34
67501;BMP180;54349;52.528;19.760;2022-11-20T05:06:30;100267.20;;;20.48
67501;BMP180;54349;52.528;19.760;2022-11-20T05:08:59;100263.20;;;20.58
67501;BMP180;54349;52.528;19.760;2022-11-20T05:11:28;100255.40;;;20.70
67501;BMP180;54349;52.528;19.760;2022-11-20T05:13:58;100250.80;;;20.80
67501;BMP180;54349;52.528;19.760;2022-11-20T05:16:27;100245.60;;;20.92
67501;BMP180;54349;52.528;19.760;2022-11-20T05:18:55;100254.00;;;21.06
67501;BMP180;54349;52.528;19.760;2022-11-20T05:21:23;100250.60;;;21.20
67501;BMP180;54349;52.528;19.760;2022-11-20T05:23:51;100251.00;;;21.26
67501;BMP180;54349;52.528;19.760;2022-11-20T05:26:21;100252.80;;;21.30
67501;BMP180;54349;52.528;19.760;2022-11-20T05:28:51;100249.60;;;21.40
67501;BMP180;54349;52.528;19.760;2022-11-20T05:31:23;100252.00;;;21.50
67501;BMP180;54349;52.528;19.760;2022-11-20T05:33:56;100255.20;;;21.60
67501;BMP180;54349;52.528;19.760;2022-11-20T05:36:25;100252.60;;;21.60
67501;BMP180;54349;52.528;19.760;2022-11-20T05:38:53;100260.00;;;21.70
67501;BMP180;54349;52.528;19.760;2022-11-20T05:41:28;100257.80;;;21.70
67501;BMP180;54349;52.528;19.760;2022-11-20T05:43:57;100253.60;;;21.80
67501;BMP180;54349;52.528;19.760;2022-11-20T05:46:26;100249.80;;;21.86
67501;BMP180;54349;52.528;19.760;2022-11-20T05:48:57;100250.60;;;21.90
67501;BMP180;54349;52.528;19.760;2022-11-20T05:51:26;100245.20;;;22.00
67501;BMP180;54349;52.528;19.760;2022-11-20T05:53:58;100243.40;;;22.00
67501;BMP180;54349;52.528;19.760;2022-11-20T05:56:26;100242.40;;;22.06
67501;BMP180;54349;52.528;19.760;2022-11-20T05:58:56;100245.80;;;22.10
67501;BMP180;54349;52.528;19.760;2022-11-20T06:01:25;100243.80;;;22.12
67501;BMP180;54349;52.528;19.760;2022-11-20T06:03:54;100252.40;;;22.20
67501;BMP180;54349;52.528;19.760;2022-11-20T06:06:22;100257.20;;;22.20
67501;BMP180;54349;52.528;19.760;2022-11-20T06:08:51;100260.00;;;22.28
67501;BMP180;54349;52.528;19.760;2022-11-20T06:11:20;100261.20;;;22.30
67501;BMP180;54349;52.528;19.760;2022-11-20T06:13:49;100260.60;;;22.30
67501;BMP180;54349;52.528;19.760;2022-11-20T06:16:19;100266.20;;;22.34
67501;BMP180;54349;52.528;19.760;2022-11-20T06:18:48;100265.00;;;22.40
67501;BMP180;54349;52.528;19.760;2022-11-20T06:21:22;100274.60;;;22.40
67501;BMP180;54349;52.528;19.760;2022-11-20T06:23:52;100273.20;;;22.50
67501;BMP180;54349;52.528;19.760;2022-11-20T06:26:26;100270.00;;;22.50
67501;BMP180;54349;52.528;19.760;2022-11-20T06:28:54;100266.60;;;22.50
67501;BMP180;54349;52.528;19.760;2022-11-20T06:31:25;100265.20;;;22.50
67501;BMP180;54349;52.528;19.760;2022-11-20T06:33:55;100264.20;;;22.56
67501;BMP180;54349;52.528;19.760;2022-11-20T06:36:23;100264.20;;;22.60
67501;BMP180;54349;52.528;19.760;2022-11-20T06:38:52;100271.00;;;22.60
67501;BMP180;54349;52.528;19.760;2022-11-20T06:41:22;100277.20;;;22.60
67501;BMP180;54349;52.528;19.760;2022-11-20T06:43:50;100276.40;;;22.62
67501;BMP180;54349;52.528;19.760;2022-11-20T06:46:20;100270.80;;;22.70
67501;BMP180;54349;52.528;19.760;2022-11-20T06:48:49;100270.60;;;22.70
67501;BMP180;54349;52.528;19.760;2022-11-20T06:51:18;100269.60;;;22.70
67501;BMP180;54349;52.528;19.760;2022-11-20T06:53:46;100271.40;;;22.70
67501;BMP180;54349;52.528;19.760;2022-11-20T06:56:15;100275.40;;;22.70
67501;BMP180;54349;52.528;19.760;2022-11-20T06:58:43;100272.00;;;22.70
67501;BMP180;54349;52.528;19.760;2022-11-20T07:01:13;100271.80;;;22.70
67501;BMP180;54349;52.528;19.760;2022-11-20T07:03:42;100270.00;;;22.70
67501;BMP180;54349;52.528;19.760;2022-11-20T07:06:11;100265.60;;;22.70
67501;BMP180;54349;52.528;19.760;2022-11-20T07:08:39;100256.60;;;22.70
67501;BMP180;54349;52.528;19.760;2022-11-20T07:11:07;100254.40;;;22.70
67501;BMP180;54349;52.528;19.760;2022-11-20T07:13:36;100252.80;;;22.70
67501;BMP180;54349;52.528;19.760;2022-11-20T07:16:07;100249.80;;;22.70
67501;BMP180;54349;52.528;19.760;2022-11-20T07:18:36;100250.80;;;22.70
67501;BMP180;54349;52.528;19.760;2022-11-20T07:21:08;100246.80;;;22.62
67501;BMP180;54349;52.528;19.760;2022-11-20T07:23:38;100252.20;;;22.60
67501;BMP180;54349;52.528;19.760;2022-11-20T07:26:09;100249.80;;;22.60
67501;BMP180;54349;52.528;19.760;2022-11-20T07:28:38;100251.60;;;22.60
67501;BMP180;54349;52.528;19.760;2022-11-20T07:31:06;100249.80;;;22.60
67501;BMP180;54349;52.528;19.760;2022-11-20T07:33:35;100242.80;;;22.60
67501;BMP180;54349;52.528;19.760;2022-11-20T07:36:05;100249.00;;;22.60
67501;BMP180;54349;52.528;19.760;2022-11-20T07:38:33;100248.20;;;22.60
67501;BMP180;54349;52.528;19.760;2022-11-20T07:41:01;100250.20;;;22.60
67501;BMP180;54349;52.528;19.760;2022-11-20T07:43:29;100251.80;;;22.56
67501;BMP180;54349;52.528;19.760;2022-11-20T07:45:59;100246.00;;;22.56
67501;BMP180;54349;52.528;19.760;2022-11-20T07:48:27;100245.00;;;22.60
67501;BMP180;54349;52.528;19.760;2022-11-20T07:50:56;100240.80;;;22.60
67501;BMP180;54349;52.528;19.760;2022-11-20T07:53:24;100241.20;;;22.60
67501;BMP180;54349;52.528;19.760;2022-11-20T07:55:53;100238.40;;;22.60
67501;BMP180;54349;52.528;19.760;2022-11-20T07:58:21;100240.80;;;22.60
67501;BMP180;54349;52.528;19.760;2022-11-20T08:00:50;100246.00;;;22.60
67501;BMP180;54349;52.528;19.760;2022-11-20T08:03:18;100243.60;;;22.60
67501;BMP180;54349;52.528;19.760;2022-11-20T08:05:52;100242.40;;;22.60
67501;BMP180;54349;52.528;19.760;2022-11-20T08:08:20;100240.20;;;22.60
67501;BMP180;54349;52.528;19.760;2022-11-20T08:10:50;100236.60;;;22.60
67501;BMP180;54349;52.528;19.760;2022-11-20T08:13:18;100235.00;;;22.60
67501;BMP180;54349;52.528;19.760;2022-11-20T08:16:05;100237.00;;;22.60
67501;BMP180;54349;52.528;19.760;2022-11-20T08:18:33;100233.00;;;22.60
67501;BMP180;54349;52.528;19.760;2022-11-20T08:21:03;100233.20;;;22.60
67501;BMP180;54349;52.528;19.760;2022-11-20T08:23:32;100224.80;;;22.62
67501;BMP180;54349;52.528;19.760;2022-11-20T08:26:01;100226.00;;;22.66
67501;BMP180;54349;52.528;19.760;2022-11-20T08:28:29;100222.80;;;22.68
67501;BMP180;54349;52.528;19.760;2022-11-20T08:31:00;100215.80;;;22.68
67501;BMP180;54349;52.528;19.760;2022-11-20T08:33:29;100216.20;;;22.70
67501;BMP180;54349;52.528;19.760;2022-11-20T08:36:00;100206.60;;;22.70
67501;BMP180;54349;52.528;19.760;2022-11-20T08:38:31;100210.20;;;22.70
67501;BMP180;54349;52.528;19.760;2022-11-20T08:41:01;100206.40;;;22.70
67501;BMP180;54349;52.528;19.760;2022-11-20T08:43:50;100208.60;;;22.70
67501;BMP180;54349;52.528;19.760;2022-11-20T08:46:19;100208.60;;;22.70
67501;BMP180;54349;52.528;19.760;2022-11-20T08:48:47;100213.40;;;22.70
67501;BMP180;54349;52.528;19.760;2022-11-20T08:51:16;100205.60;;;22.70
67501;BMP180;54349;52.528;19.760;2022-11-20T08:53:46;100207.80;;;22.78
67501;BMP180;54349;52.528;19.760;2022-11-20T08:56:17;100208.40;;;22.78
67501;BMP180;54349;52.528;19.760;2022-11-20T08:58:45;100208.80;;;22.80
67501;BMP180;54349;52.528;19.760;2022-11-20T09:01:34;100210.60;;;22.80
67501;BMP180;54349;52.528;19.760;2022-11-20T09:04:03;100207.80;;;22.80
67501;BMP180;54349;52.528;19.760;2022-11-20T09:06:33;100210.40;;;22.80
67501;BMP180;54349;52.528;19.760;2022-11-20T09:09:01;100208.20;;;22.80
67501;BMP180;54349;52.528;19.760;2022-11-20T09:11:35;100206.60;;;22.80
67501;BMP180;54349;52.528;19.760;2022-11-20T09:14:04;100204.80;;;22.80
67501;BMP180;54349;52.528;19.760;2022-11-20T09:16:32;100202.80;;;22.80
67501;BMP180;54349;52.528;19.760;2022-11-20T09:19:01;100199.00;;;22.80
67501;BMP180;54349;52.528;19.760;2022-11-20T09:21:49;100194.40;;;22.80
67501;BMP180;54349;52.528;19.760;2022-11-20T09:24:22;100192.80;;;22.80
67501;BMP180;54349;52.528;19.760;2022-11-20T09:26:50;100197.20;;;22.80
67501;BMP180;54349;52.528;19.760;2022-11-20T09:29:19;100195.80;;;22.80
67501;BMP180;54349;52.528;19.760;2022-11-20T09:31:47;100198.60;;;22.80
67501;BMP180;54349;52.528;19.760;2022-11-20T09:34:16;100198.20;;;22.80
67501;BMP180;54349;52.528;19.760;2022-11-20T09:36:45;100201.40;;;22.80
67501;BMP180;54349;52.528;19.760;2022-11-20T09:39:13;100194.00;;;22.80
67501;BMP180;54349;52.528;19.760;2022-11-20T09:41:59;100189.80;;;22.80
67501;BMP180;54349;52.528;19.760;2022-11-20T09:54:36;100185.80;;;22.78
67501;BMP180;54349;52.528;19.760;2022-11-20T09:57:18;100182.80;;;22.76
67501;BMP180;54349;52.528;19.760;2022-11-20T10:00:03;100183.00;;;22.76
67501;BMP180;54349;52.528;19.760;2022-11-20T10:05:42;100174.00;;;22.80
67501;BMP180;54349;52.528;19.760;2022-11-20T10:08:28;100171.80;;;22.80
67501;BMP180;54349;52.528;19.760;2022-11-20T10:11:31;100168.40;;;22.80
67501;BMP180;54349;52.528;19.760;2022-11-20T10:19:47;100164.40;;;22.70
67501;BMP180;54349;52.528;19.760;2022-11-20T10:25:19;100161.40;;;22.70
67501;BMP180;54349;52.528;19.760;2022-11-20T10:31:47;100153.80;;;22.70
67501;BMP180;54349;52.528;19.760;2022-11-20T10:34:37;100154.00;;;22.70
67501;BMP180;54349;52.528;19.760;2022-11-20T10:37:17;100155.60;;;22.70
67501;BMP180;54349;52.528;19.760;2022-11-20T10:43:11;100146.20;;;22.70
67501;BMP180;54349;52.528;19.760;2022-11-20T10:46:00;100145.20;;;22.70
67501;BMP180;54349;52.528;19.760;2022-11-20T10:48:32;100145.60;;;22.70
67501;BMP180;54349;52.528;19.760;2022-11-20T10:51:40;100151.40;;;22.70
67501;BMP180;54349;52.528;19.760;2022-11-20T10:56:52;100148.00;;;22.70
67501;BMP180;54349;52.528;19.760;2022-11-20T11:01:58;100152.20;;;22.70
67501;BMP180;54349;52.528;19.760;2022-11-20T11:04:46;100152.40;;;22.76
67501;BMP180;54349;52.528;19.760;2022-11-20T11:09:53;100152.80;;;22.80
67501;BMP180;54349;52.528;19.760;2022-11-20T11:12:25;100151.20;;;22.80
67501;BMP180;54349;52.528;19.760;2022-11-20T11:14:56;100147.20;;;22.80
67501;BMP180;54349;52.528;19.760;2022-11-20T11:17:33;100146.20;;;22.80
67501;BMP180;54349;52.528;19.760;2022-11-20T11:20:19;100142.40;;;22.90
67501;BMP180;54349;52.528;19.760;2022-11-20T11:22:54;100137.20;;;22.90
67501;BMP180;54349;52.528;19.760;2022-11-20T11:25:32;100132.40;;;22.90
67501;BMP180;54349;52.528;19.760;2022-11-20T11:28:21;100130.60;;;22.90
67501;BMP180;54349;52.528;19.760;2022-11-20T11:30:49;100128.60;;;23.00
67501;BMP180;54349;52.528;19.760;2022-11-20T11:33:22;100127.80;;;23.00
67501;BMP180;54349;52.528;19.760;2022-11-20T11:35:58;100127.20;;;23.00
67501;BMP180;54349;52.528;19.760;2022-11-20T11:38:35;100131.20;;;23.00
67501;BMP180;54349;52.528;19.760;2022-11-20T11:41:07;100132.40;;;23.00
67501;BMP180;54349;52.528;19.760;2022-11-20T11:43:37;100135.40;;;23.00
67501;BMP180;54349;52.528;19.760;2022-11-20T11:46:34;100131.40;;;23.00
67501;BMP180;54349;52.528;19.760;2022-11-20T11:54:38;100128.80;;;23.00
67501;BMP180;54349;52.528;19.760;2022-11-20T11:57:50;100121.20;;;23.00
67501;BMP180;54349;52.528;19.760;2022-11-20T12:00:22;100122.60;;;23.00
67501;BMP180;54349;52.528;19.760;2022-11-20T12:05:49;100117.00;;;23.00
67501;BMP180;54349;52.528;19.760;2022-11-20T12:11:44;100109.20;;;23.10
67501;BMP180;54349;52.528;19.760;2022-11-20T12:14:42;100109.00;;;23.10
67501;BMP180;54349;52.528;19.760;2022-11-20T12:17:14;100106.00;;;23.10
67501;BMP180;54349;52.528;19.760;2022-11-20T12:19:43;100104.40;;;23.10
67501;BMP180;54349;52.528;19.760;2022-11-20T12:22:56;100103.80;;;23.10
67501;BMP180;54349;52.528;19.760;2022-11-20T12:25:32;100103.40;;;23.00
67501;BMP180;54349;52.528;19.760;2022-11-20T12:37:18;100086.40;;;22.90
67501;BMP180;54349;52.528;19.760;2022-11-20T12:39:50;100082.20;;;22.90
67501;BMP180;54349;52.528;19.760;2022-11-20T12:46:14;100074.00;;;22.90
67501;BMP180;54349;52.528;19.760;2022-11-20T12:52:11;100072.00;;;22.90
67501;BMP180;54349;52.528;19.760;2022-11-20T13:00:17;100062.80;;;22.80
67501;BMP180;54349;52.528;19.760;2022-11-20T13:08:39;100065.80;;;22.70
67501;BMP180;54349;52.528;19.760;2022-11-20T13:11:44;100062.60;;;22.70
67501;BMP180;54349;52.528;19.760;2022-11-20T13:14:28;100055.40;;;22.70
67501;BMP180;54349;52.528;19.760;2022-11-20T13:19:53;100046.40;;;22.60
67501;BMP180;54349;52.528;19.760;2022-11-20T13:22:52;100047.20;;;22.60
67501;BMP180;54349;52.528;19.760;2022-11-20T13:25:37;100042.40;;;22.56
67501;BMP180;54349;52.528;19.760;2022-11-20T13:30:52;100039.80;;;22.50
67501;BMP180;54349;52.528;19.760;2022-11-20T13:33:34;100036.20;;;22.50
67501;BMP180;54349;52.528;19.760;2022-11-20T13:36:26;100026.80;;;22.40
67501;BMP180;54349;52.528;19.760;2022-11-20T13:38:56;100024.00;;;22.40
67501;BMP180;54349;52.528;19.760;2022-11-20T13:41:36;100019.60;;;22.40
67501;BMP180;54349;52.528;19.760;2022-11-20T13:44:13;100020.00;;;22.40
67501;BMP180;54349;52.528;19.760;2022-11-20T13:46:46;100019.80;;;22.36
67501;BMP180;54349;52.528;19.760;2022-11-20T13:55:24;100007.60;;;22.30
67501;BMP180;54349;52.528;19.760;2022-11-20T14:03:42;99991.80;;;22.30
67501;BMP180;54349;52.528;19.760;2022-11-20T14:06:44;99993.20;;;22.30
67501;BMP180;54349;52.528;19.760;2022-11-20T14:09:35;99991.80;;;22.30
67501;BMP180;54349;52.528;19.760;2022-11-20T14:12:16;99994.40;;;22.30
67501;BMP180;54349;52.528;19.760;2022-11-20T14:14:53;99991.00;;;22.30
67501;BMP180;54349;52.528;19.760;2022-11-20T14:17:35;99994.80;;;22.30
67501;BMP180;54349;52.528;19.760;2022-11-20T14:20:12;99995.60;;;22.38
67501;BMP180;54349;52.528;19.760;2022-11-20T14:22:50;99997.40;;;22.32
67501;BMP180;54349;52.528;19.760;2022-11-20T14:25:25;99997.00;;;22.30
67501;BMP180;54349;52.528;19.760;2022-11-20T14:28:01;99999.80;;;22.30
67501;BMP180;54349;52.528;19.760;2022-11-20T14:30:42;100002.60;;;22.32
67501;BMP180;54349;52.528;19.760;2022-11-20T14:33:14;100001.00;;;22.30
67501;BMP180;54349;52.528;19.760;2022-11-20T14:35:49;99997.20;;;22.32
67501;BMP180;54349;52.528;19.760;2022-11-20T14:38:24;99994.60;;;22.30
67501;BMP180;54349;52.528;19.760;2022-11-20T14:40:53;99990.60;;;22.30
67501;BMP180;54349;52.528;19.760;2022-11-20T14:43:23;99994.60;;;22.20
67501;BMP180;54349;52.528;19.760;2022-11-20T14:46:05;99986.40;;;22.20
67501;BMP180;54349;52.528;19.760;2022-11-20T14:51:43;99983.20;;;22.10
67501;BMP180;54349;52.528;19.760;2022-11-20T14:54:18;99984.00;;;22.10
67501;BMP180;54349;52.528;19.760;2022-11-20T14:56:59;99977.60;;;22.10
67501;BMP180;54349;52.528;19.760;2022-11-20T14:59:33;99974.40;;;22.10
67501;BMP180;54349;52.528;19.760;2022-11-20T15:02:12;99969.20;;;22.10
67501;BMP180;54349;52.528;19.760;2022-11-20T15:04:55;99968.40;;;22.10
67501;BMP180;54349;52.528;19.760;2022-11-20T15:07:29;99971.00;;;22.10
67501;BMP180;54349;52.528;19.760;2022-11-20T15:10:11;99974.20;;;22.10
67501;BMP180;54349;52.528;19.760;2022-11-20T15:12:49;99974.60;;;22.00
67501;BMP180;54349;52.528;19.760;2022-11-20T15:15:36;99971.20;;;22.00
67501;BMP180;54349;52.528;19.760;2022-11-20T15:18:17;99972.00;;;22.00
67501;BMP180;54349;52.528;19.760;2022-11-20T15:20:46;99966.00;;;21.96
67501;BMP180;54349;52.528;19.760;2022-11-20T15:23:17;99965.60;;;21.90
67501;BMP180;54349;52.528;19.760;2022-11-20T15:25:47;99968.60;;;21.90
67501;BMP180;54349;52.528;19.760;2022-11-20T15:28:29;99958.00;;;21.80
67501;BMP180;54349;52.528;19.760;2022-11-20T15:30:58;99955.80;;;21.80
67501;BMP180;54349;52.528;19.760;2022-11-20T15:33:27;99952.60;;;21.80
67501;BMP180;54349;52.528;19.760;2022-11-20T15:35:56;99949.80;;;21.80
67501;BMP180;54349;52.528;19.760;2022-11-20T15:38:24;99949.20;;;21.70
67501;BMP180;54349;52.528;19.760;2022-11-20T15:40:53;99949.20;;;21.70
67501;BMP180;54349;52.528;19.760;2022-11-20T15:43:21;99946.80;;;21.70
67501;BMP180;54349;52.528;19.760;2022-11-20T15:45:59;99946.40;;;21.62
67501;BMP180;54349;52.528;19.760;2022-11-20T15:53:41;99947.40;;;21.72
67501;BMP180;54349;52.528;19.760;2022-11-20T15:56:13;99943.40;;;21.80
67501;BMP180;54349;52.528;19.760;2022-11-20T15:58:42;99940.40;;;21.80
67501;BMP180;54349;52.528;19.760;2022-11-20T16:01:14;99940.20;;;21.90